Time;durP1;ratioP1;P1;durP2;ratioP2;P2;SDS_P1;SDS_P2;PMS_P1;PMS_P2;Temp;Humidity;BMP_temperature;BMP_pressure;BME280_temperature;BME280_humidity;BME280_pressure;Samples;Min_cycle;Max_cycle;Signal;HPM_P1;HPM_P2
2022/11/11 00:02:37;;;;;;;8.15;4.47;;;;;;;10.37;81.54;102057.25;1683509;83;21073;-83
2022/11/11 00:05:23;;;;;;;12.30;4.85;;;;;;;10.38;81.53;102052.95;1685342;83;21065;-83
2022/11/11 00:08:07;;;;;;;8.48;4.40;;;;;;;10.38;81.52;102059.41;1678278;83;21563;-83
2022/11/11 00:10:52;;;;;;;13.38;4.17;;;;;;;10.38;81.55;102064.16;1698394;83;21084;-83
2022/11/11 00:13:39;;;;;;;11.68;4.50;;;;;;;10.39;81.56;102062.01;1694875;82;21076;-83
2022/11/11 00:16:24;;;;;;;11.78;4.80;;;;;;;10.40;81.54;102062.88;1686743;83;20978;-83
2022/11/11 00:25:25;;;;;;;11.30;4.33;;;;;;;10.42;81.60;102066.30;1635736;86;21687;-82
2022/11/11 00:28:10;;;;;;;10.78;3.77;;;;;;;10.41;81.61;102060.70;1630896;85;21572;-83
2022/11/11 00:31:12;;;;;;;8.53;3.80;;;;;;;10.41;81.62;102068.45;1647317;84;21437;-83
2022/11/11 00:33:57;;;;;;;12.23;4.08;;;;;;;10.42;81.62;102061.13;1639445;85;21160;-83
2022/11/11 00:36:42;;;;;;;9.73;4.40;;;;;;;10.43;81.65;102068.03;1649250;84;21506;-83
2022/11/11 00:39:27;;;;;;;10.13;3.80;;;;;;;10.44;81.64;102074.52;1640447;85;21121;-83
2022/11/11 00:42:12;;;;;;;10.55;4.00;;;;;;;10.43;81.66;102071.48;1645104;85;21021;-83
2022/11/11 00:44:57;;;;;;;9.58;3.95;;;;;;;10.45;81.67;102066.33;1635419;85;21125;-83
2022/11/11 00:50:58;;;;;;;10.23;4.10;;;;;;;10.45;81.65;102062.45;1628691;85;21591;-83
2022/11/11 00:53:43;;;;;;;11.55;3.65;;;;;;;10.46;81.66;102066.77;1622337;85;21092;-83
2022/11/11 00:56:28;;;;;;;9.63;4.10;;;;;;;10.46;81.66;102056.42;1624265;85;21531;-83
2022/11/11 00:59:13;;;;;;;10.05;4.05;;;;;;;10.46;81.67;102063.75;1626843;85;21073;-83
2022/11/11 01:01:58;;;;;;;8.60;3.95;;;;;;;10.46;81.69;102062.46;1625822;85;21076;-83
2022/11/11 01:04:44;;;;;;;7.28;3.72;;;;;;;10.46;81.71;102065.05;1634374;85;21076;-83
2022/11/11 01:07:29;;;;;;;9.90;3.98;;;;;;;10.47;81.69;102065.91;1642787;85;21454;-83
2022/11/11 01:10:36;;;;;;;12.25;4.25;;;;;;;10.47;81.69;102062.90;1631916;85;21144;-83
2022/11/11 01:13:10;;;;;;;13.48;3.90;;;;;;;10.48;81.70;102070.23;1629341;85;21068;-83
2022/11/11 01:15:51;;;;;;;16.12;4.10;;;;;;;10.48;81.70;102072.39;1622165;85;21088;-83
2022/11/11 01:18:36;;;;;;;9.20;4.08;;;;;;;10.48;81.71;102076.27;1624194;85;21635;-83
2022/11/11 01:21:24;;;;;;;9.30;3.87;;;;;;;10.49;81.72;102070.67;1630767;85;21064;-83
2022/11/11 01:24:09;;;;;;;11.33;4.42;;;;;;;10.48;81.69;102072.39;1628757;85;21065;-83
2022/11/11 01:26:54;;;;;;;12.85;3.98;;;;;;;10.48;81.70;102077.56;1637506;85;21104;-83
2022/11/11 01:29:39;;;;;;;10.72;3.80;;;;;;;10.48;81.71;102089.20;1640539;85;21466;-83
2022/11/11 01:32:24;;;;;;;12.60;4.25;;;;;;;10.49;81.72;102088.77;1634489;85;21096;-83
2022/11/11 01:35:09;;;;;;;13.18;3.83;;;;;;;10.49;81.73;102083.17;1642344;85;21116;-83
2022/11/11 01:37:56;;;;;;;9.65;3.52;;;;;;;10.49;81.70;102088.77;1626911;85;21109;-84
2022/11/11 01:40:44;;;;;;;9.43;3.60;;;;;;;10.49;81.73;102079.72;1633813;85;21141;-83
2022/11/11 01:43:29;;;;;;;11.90;4.17;;;;;;;10.48;81.71;102081.44;1642259;85;21104;-83
2022/11/11 01:46:55;;;;;;;10.40;4.08;;;;;;;10.47;81.71;102069.37;1637267;85;21489;-83
2022/11/11 01:49:59;;;;;;;8.53;3.70;;;;;;;10.47;81.70;102059.45;1617358;85;21028;-83
2022/11/11 01:52:45;;;;;;;12.60;4.25;;;;;;;10.47;81.76;102043.93;1632090;85;20996;-83
2022/11/11 01:55:31;;;;;;;8.95;3.55;;;;;;;10.47;81.75;102027.13;1635252;85;21096;-83
2022/11/11 01:58:18;;;;;;;13.60;4.37;;;;;;;10.46;81.72;102016.34;1636471;85;21113;-83
2022/11/11 02:01:04;;;;;;;9.45;4.45;;;;;;;10.45;81.73;102024.52;1628502;85;21112;-83
2022/11/11 02:07:00;;;;;;;14.33;4.30;;;;;;;10.41;81.74;102021.48;1630535;85;21155;-83
2022/11/11 02:09:48;;;;;;;10.05;3.90;;;;;;;10.40;81.74;102020.20;1641020;85;21116;-82
2022/11/11 02:15:37;;;;;;;13.53;4.35;;;;;;;10.38;81.74;102012.86;1630541;85;21128;-82
2022/11/11 02:18:22;;;;;;;7.25;3.92;;;;;;;10.37;81.75;102023.64;1635743;85;21148;-82
2022/11/11 02:21:11;;;;;;;7.42;3.95;;;;;;;10.36;81.74;102023.20;1639289;85;21072;-82
2022/11/11 02:24:18;;;;;;;10.10;3.45;;;;;;;10.35;81.77;102022.76;1646957;85;21037;-82
2022/11/11 02:27:05;;;;;;;9.10;4.12;;;;;;;10.34;81.76;102029.21;1629349;85;21600;-82
2022/11/11 02:29:53;;;;;;;8.83;4.53;;;;;;;10.32;81.79;102036.09;1637436;85;21075;-82
2022/11/11 02:32:38;;;;;;;9.00;3.50;;;;;;;10.33;81.78;102054.63;1633468;85;21546;-82
2022/11/11 02:35:34;;;;;;;14.00;4.28;;;;;;;10.32;81.79;102057.64;1631483;85;21060;-83
2022/11/11 02:38:19;;;;;;;10.38;3.50;;;;;;;10.32;81.80;102055.05;1621774;85;20972;-82
2022/11/11 02:44:07;;;;;;;8.93;3.62;;;;;;;10.32;81.80;102061.95;1636503;85;21089;-82
2022/11/11 02:46:52;;;;;;;8.93;3.70;;;;;;;10.31;81.77;102065.38;1637178;85;21107;-82
2022/11/11 02:49:37;;;;;;;12.07;3.72;;;;;;;10.30;81.79;102065.81;1636132;85;21581;-82
2022/11/11 02:52:22;;;;;;;9.65;4.00;;;;;;;10.31;81.79;102064.09;1629038;85;21525;-82
2022/11/11 02:55:09;;;;;;;10.32;3.90;;;;;;;10.30;81.79;102064.52;1622243;85;21767;-82
2022/11/11 02:57:53;;;;;;;14.95;4.30;;;;;;;10.30;81.80;102060.64;1635961;85;22340;-82
2022/11/11 03:00:39;;;;;;;11.35;3.95;;;;;;;10.30;81.81;102052.02;1638380;85;21048;-82
2022/11/11 03:03:24;;;;;;;10.32;3.80;;;;;;;10.30;81.80;102058.05;1641822;85;21060;-83
2022/11/11 03:06:09;;;;;;;7.33;3.55;;;;;;;10.30;81.80;102053.31;1622206;85;21105;-82
2022/11/11 03:08:55;;;;;;;8.88;3.65;;;;;;;10.28;81.81;102050.28;1642967;85;21064;-82
2022/11/11 03:11:40;;;;;;;11.83;4.03;;;;;;;10.29;81.80;102062.78;1641288;85;21869;-82
2022/11/11 03:14:25;;;;;;;12.18;4.00;;;;;;;10.27;81.78;102065.78;1620401;85;21004;-82
2022/11/11 03:23:20;;;;;;;7.75;3.67;;;;;;;10.24;81.80;102079.55;1626447;85;21097;-82
2022/11/11 03:26:05;;;;;;;13.20;4.17;;;;;;;10.22;81.81;102073.50;1630403;85;21162;-83
2022/11/11 03:28:50;;;;;;;11.73;4.50;;;;;;;10.21;81.79;102081.23;1631313;85;21068;-83
2022/11/11 03:31:36;;;;;;;10.28;4.22;;;;;;;10.18;81.78;102076.01;1640587;85;21069;-83
2022/11/11 03:34:21;;;;;;;10.40;4.58;;;;;;;10.19;81.79;102093.25;1626479;85;21064;-83
2022/11/11 03:40:13;;;;;;;10.40;4.10;;;;;;;10.16;81.78;102083.75;1635173;85;21112;-83
2022/11/11 03:42:58;;;;;;;10.63;3.52;;;;;;;10.16;81.79;102091.92;1637160;85;21100;-83
2022/11/11 03:45:44;;;;;;;13.78;3.75;;;;;;;10.15;81.80;102086.31;1638064;85;21485;-83
2022/11/11 03:48:33;;;;;;;9.28;3.42;;;;;;;10.15;81.81;102090.19;1642021;85;28198;-83
2022/11/11 03:51:18;;;;;;;8.23;3.35;;;;;;;10.14;81.82;102092.34;1656502;85;21505;-83
2022/11/11 03:54:03;;;;;;;8.73;3.27;;;;;;;10.14;81.80;102081.58;1650582;84;21061;-83
2022/11/11 03:56:48;;;;;;;12.13;3.65;;;;;;;10.13;81.79;102086.30;1649664;84;21557;-83
2022/11/11 03:59:33;;;;;;;8.50;3.37;;;;;;;10.14;81.78;102082.00;1658206;84;21113;-83
2022/11/11 04:11:34;;;;;;;12.73;3.87;;;;;;;10.05;81.77;102054.78;1672872;84;21474;-83
2022/11/11 04:17:22;;;;;;;5.62;3.22;;;;;;;9.97;81.76;102052.12;1687058;83;21010;-83
2022/11/11 04:23:12;;;;;;;6.00;3.20;;;;;;;9.90;81.74;102051.62;1679184;84;21087;-83
2022/11/11 04:26:00;;;;;;;8.63;3.02;;;;;;;9.85;81.76;102050.31;1663328;84;21596;-83
2022/11/11 04:34:55;;;;;;;11.73;3.47;;;;;;;9.77;81.77;102069.16;1679898;84;21579;-83
2022/11/11 04:41:02;;;;;;;5.92;3.17;;;;;;;9.75;81.78;102077.33;1667123;84;21079;-83
2022/11/11 04:46:45;;;;;;;10.03;2.95;;;;;;;9.70;81.82;102081.14;1691025;82;21130;-83
2022/11/11 04:49:30;;;;;;;8.48;3.52;;;;;;;9.69;81.83;102080.70;1704158;82;21070;-83
2022/11/11 04:52:28;;;;;;;10.38;3.42;;;;;;;9.68;81.80;102076.81;1684692;84;21084;-83
2022/11/11 04:58:21;;;;;;;10.25;3.37;;;;;;;9.63;81.79;102066.43;1669252;84;21060;-83
2022/11/11 05:01:06;;;;;;;9.33;3.58;;;;;;;9.60;81.80;102064.67;1674360;84;21493;-83
2022/11/11 05:03:51;;;;;;;10.20;3.45;;;;;;;9.57;81.78;102073.68;1681713;84;21519;-83
2022/11/11 05:09:40;;;;;;;13.15;3.40;;;;;;;9.50;81.75;102073.59;1680896;83;21330;-83
2022/11/11 05:12:24;;;;;;;9.73;3.35;;;;;;;9.48;81.78;102081.74;1669353;84;21047;-83
2022/11/11 05:21:25;;;;;;;9.48;4.00;;;;;;;9.39;81.76;102090.66;1683510;84;21080;-83
2022/11/11 05:27:13;;;;;;;8.93;3.70;;;;;;;9.32;81.78;102088.46;1672448;83;21436;-83
2022/11/11 05:29:58;;;;;;;8.35;3.15;;;;;;;9.25;81.73;102087.94;1636650;84;21063;-83
2022/11/11 05:32:44;;;;;;;7.53;3.35;;;;;;;9.20;81.75;102085.30;1644401;85;21105;-83
2022/11/11 05:35:29;;;;;;;13.32;3.42;;;;;;;9.17;81.75;102093.42;1678064;84;21059;-82
2022/11/11 05:38:20;;;;;;;10.08;3.83;;;;;;;9.12;81.79;102106.26;1658455;84;21063;-83
2022/11/11 05:41:06;;;;;;;9.98;4.10;;;;;;;9.09;81.77;102111.80;1677690;84;21120;-83
2022/11/11 05:43:50;;;;;;;7.25;3.70;;;;;;;9.05;81.77;102105.73;1683156;81;21104;-82
2022/11/11 05:46:35;;;;;;;10.05;4.30;;;;;;;9.01;81.74;102101.80;1557363;84;10000202;-82
2022/11/11 05:49:20;;;;;;;9.58;3.72;;;;;;;8.94;81.74;102096.55;1634193;85;21073;-82
2022/11/11 05:52:06;;;;;;;10.10;3.58;;;;;;;8.88;81.73;102100.32;1651620;84;21572;-82
2022/11/11 05:54:51;;;;;;;5.90;3.92;;;;;;;8.82;81.74;102089.08;1660400;84;21077;-82
2022/11/11 05:57:36;;;;;;;7.83;3.40;;;;;;;8.79;81.75;102097.64;1632878;86;21758;-82
2022/11/11 06:00:22;;;;;;;9.60;3.98;;;;;;;8.75;81.78;102097.56;1648296;85;21079;-82
2022/11/11 06:03:06;;;;;;;6.60;3.33;;;;;;;8.71;81.76;102096.66;1688597;83;21070;-83
2022/11/11 06:05:52;;;;;;;12.65;4.12;;;;;;;8.66;81.76;102098.71;1634480;86;21502;-82
2022/11/11 06:08:37;;;;;;;10.58;3.47;;;;;;;8.62;81.80;102101.24;1632666;85;21142;-82
2022/11/11 06:11:22;;;;;;;11.38;3.98;;;;;;;8.59;81.77;102087.43;1640689;85;21116;-82
2022/11/11 06:14:07;;;;;;;8.13;3.80;;;;;;;8.56;81.79;102083.52;1677185;83;21053;-83
2022/11/11 06:16:52;;;;;;;9.20;4.55;;;;;;;8.53;81.77;102092.06;1694874;82;21133;-82
2022/11/11 06:19:37;;;;;;;7.80;3.92;;;;;;;8.51;81.82;102105.36;1695674;83;21062;-82
2022/11/11 06:22:55;;;;;;;7.45;3.58;;;;;;;8.51;81.83;102107.06;1689185;83;21089;-82
2022/11/11 06:28:14;;;;;;;7.28;3.62;;;;;;;8.51;81.87;102108.36;1687151;82;21011;-82
2022/11/11 06:30:59;;;;;;;6.62;4.12;;;;;;;8.50;81.87;102093.31;1685835;83;21094;-82
2022/11/11 06:33:44;;;;;;;11.95;4.17;;;;;;;8.51;81.88;102089.89;1678908;81;21439;-82
2022/11/11 06:36:29;;;;;;;10.68;3.98;;;;;;;8.48;81.84;102098.86;1696894;83;21054;-82
2022/11/11 06:39:14;;;;;;;11.90;3.83;;;;;;;8.47;81.84;102097.13;1684939;83;21074;-82
2022/11/11 06:41:59;;;;;;;7.72;3.87;;;;;;;8.48;81.91;102101.44;1686221;83;21093;-82
2022/11/11 06:44:44;;;;;;;15.43;4.05;;;;;;;8.47;81.86;102094.97;1692925;83;21306;-82
2022/11/11 06:47:29;;;;;;;8.73;4.17;;;;;;;8.46;81.88;102091.52;1692255;83;21018;-82
2022/11/11 06:50:15;;;;;;;8.48;4.00;;;;;;;8.47;81.92;102093.26;1684938;83;21062;-82
2022/11/11 06:53:11;;;;;;;18.30;4.23;;;;;;;8.46;81.89;102099.25;1681665;83;21127;-82
2022/11/11 06:55:57;;;;;;;11.53;3.60;;;;;;;8.46;81.91;102099.67;1683103;82;21046;-82
2022/11/11 06:58:42;;;;;;;10.30;3.90;;;;;;;8.47;81.92;102100.13;1697548;83;21398;-83
2022/11/11 07:01:26;;;;;;;7.40;3.42;;;;;;;8.47;81.95;102102.70;1696177;83;21137;-83
2022/11/11 07:04:12;;;;;;;9.50;3.95;;;;;;;8.48;81.96;102095.00;1696385;82;20923;-83
2022/11/11 07:06:56;;;;;;;9.90;4.12;;;;;;;8.49;81.95;102099.31;1692847;82;21528;-83
2022/11/11 07:09:42;;;;;;;9.80;4.40;;;;;;;8.51;81.98;102098.91;1694317;83;21315;-83
2022/11/11 07:12:27;;;;;;;12.53;4.43;;;;;;;8.52;81.98;102100.65;1679560;83;21086;-82
2022/11/11 07:15:12;;;;;;;5.37;3.35;;;;;;;8.53;82.02;102110.12;1638307;85;21068;-82
2022/11/11 07:17:57;;;;;;;12.03;4.20;;;;;;;8.57;82.02;102109.33;1646188;85;21584;-83
2022/11/11 07:20:42;;;;;;;8.90;4.12;;;;;;;8.61;82.03;102112.81;1692981;83;21073;-83
2022/11/11 07:23:27;;;;;;;9.05;3.80;;;;;;;8.64;82.04;102112.88;1679085;83;21302;-83
2022/11/11 07:26:12;;;;;;;7.80;4.00;;;;;;;8.70;82.04;102118.13;1692323;83;21428;-82
2022/11/11 07:28:58;;;;;;;6.47;3.83;;;;;;;8.73;82.06;102108.28;1682527;83;21050;-83
2022/11/11 07:31:43;;;;;;;8.05;3.75;;;;;;;8.78;82.07;102107.51;1684361;83;20999;-83
2022/11/11 07:34:28;;;;;;;10.18;3.87;;;;;;;8.81;82.05;102107.98;1630024;86;21088;-83
2022/11/11 07:37:13;;;;;;;8.40;4.00;;;;;;;8.84;82.04;102108.86;1646566;84;21118;-83
2022/11/11 07:39:58;;;;;;;13.13;4.53;;;;;;;8.86;82.07;102107.59;1639645;85;21148;-83
2022/11/11 07:42:43;;;;;;;9.68;3.55;;;;;;;8.91;82.14;102108.53;1648292;85;21029;-83
2022/11/11 07:45:28;;;;;;;13.30;4.28;;;;;;;8.96;82.13;102112.05;1661300;84;21477;-83
2022/11/11 07:48:14;;;;;;;8.13;3.30;;;;;;;9.01;82.15;102112.98;1631454;86;21056;-83
2022/11/11 07:50:59;;;;;;;6.25;3.60;;;;;;;9.07;82.15;102111.78;1649849;84;21085;-82
2022/11/11 07:53:44;;;;;;;9.23;3.83;;;;;;;9.13;82.18;102123.48;1660894;84;21097;-82
2022/11/11 07:56:29;;;;;;;8.85;4.40;;;;;;;9.17;82.14;102122.67;1658856;84;21076;-82
2022/11/11 07:59:14;;;;;;;14.85;4.03;;;;;;;9.20;82.18;102125.72;1658615;84;21496;-82
2022/11/11 08:01:59;;;;;;;9.80;4.08;;;;;;;9.26;82.18;102130.55;1668484;84;21121;-83
2022/11/11 08:04:45;;;;;;;10.25;3.65;;;;;;;9.31;82.15;102128.03;1699452;82;21039;-82
2022/11/11 08:07:32;;;;;;;7.05;3.65;;;;;;;9.35;82.16;102119.48;1698004;82;21106;-83
2022/11/11 08:10:17;;;;;;;;;;;;;;;9.39;82.13;102126.81;1705498;82;21106;-83
2022/11/11 08:16:11;;;;;;;8.83;3.60;;;;;;;9.42;82.16;102130.72;1683224;84;21071;-82
2022/11/11 08:18:57;;;;;;;8.50;3.60;;;;;;;9.45;82.18;102134.20;1680162;83;21028;-82
2022/11/11 08:21:42;;;;;;;10.70;3.85;;;;;;;9.50;82.17;102142.02;1678332;83;20996;-83
2022/11/11 08:24:27;;;;;;;7.95;3.37;;;;;;;9.54;82.18;102138.20;1677822;84;22306;-82
2022/11/11 08:27:11;;;;;;;7.78;3.40;;;;;;;9.57;82.18;102146.41;1676891;83;21104;-83
2022/11/11 08:29:56;;;;;;;11.15;3.90;;;;;;;9.58;82.18;102139.11;1680557;84;21051;-83
2022/11/11 08:32:41;;;;;;;8.38;3.65;;;;;;;9.62;82.22;102144.33;1696263;81;21075;-82
2022/11/11 08:35:27;;;;;;;9.38;3.47;;;;;;;9.67;82.21;102148.69;1712718;82;21577;-82
2022/11/11 08:38:12;;;;;;;9.13;3.33;;;;;;;9.71;82.17;102146.59;1711191;82;21012;-83
2022/11/11 08:41:03;;;;;;;8.25;4.20;;;;;;;9.74;82.19;102151.79;1699028;82;21480;-82
2022/11/11 08:43:54;;;;;;;10.08;3.75;;;;;;;9.78;82.21;102153.56;1710329;82;21542;-82
2022/11/11 08:46:39;;;;;;;8.00;3.70;;;;;;;9.82;82.18;102160.08;1663775;84;21110;-82
2022/11/11 08:49:24;;;;;;;9.03;3.52;;;;;;;9.85;82.15;102165.28;1701598;82;21471;-82
2022/11/11 08:52:09;;;;;;;6.42;3.55;;;;;;;9.90;82.19;102164.88;1700755;82;21047;-83
2022/11/11 08:54:55;;;;;;;7.58;3.50;;;;;;;9.96;82.17;102170.12;1648730;84;21700;-83
2022/11/11 08:57:40;;;;;;;5.42;3.33;;;;;;;10.02;82.17;102159.41;1648212;85;21097;-83
2022/11/11 09:00:25;;;;;;;5.75;3.50;;;;;;;10.07;82.15;102168.95;1659649;84;21540;-83
2022/11/11 09:03:11;;;;;;;6.75;3.30;;;;;;;10.11;82.12;102171.14;1645621;85;21088;-83
2022/11/11 09:05:57;;;;;;;5.30;2.92;;;;;;;10.16;82.15;102178.09;1651023;85;21497;-83
2022/11/11 09:08:44;;;;;;;7.53;4.17;;;;;;;10.20;82.12;102186.36;1657678;84;21522;-83
2022/11/11 09:11:35;;;;;;;9.60;3.62;;;;;;;10.28;82.16;102189.89;1658707;84;20973;-83
2022/11/11 09:14:15;;;;;;;8.38;3.17;;;;;;;10.37;82.20;102190.84;1649248;84;21320;-83
2022/11/11 09:17:00;;;;;;;10.00;3.37;;;;;;;10.43;82.17;102196.04;1650260;85;20952;-83
2022/11/11 09:19:45;;;;;;;10.03;3.12;;;;;;;10.49;82.17;102201.27;1651710;85;20971;-83
2022/11/11 09:22:30;;;;;;;8.90;3.40;;;;;;;10.54;82.17;102206.94;1652157;84;21335;-83
2022/11/11 09:25:16;;;;;;;7.42;3.12;;;;;;;10.59;82.18;102210.44;1656440;84;21392;-78
2022/11/11 09:28:01;;;;;;;10.08;3.20;;;;;;;10.61;82.05;102207.44;1628842;86;21388;-79
2022/11/11 09:30:46;;;;;;;6.75;3.17;;;;;;;10.65;82.02;102210.05;1684393;83;21067;-79
2022/11/11 09:33:31;;;;;;;9.05;3.20;;;;;;;10.68;82.08;102213.53;1686611;82;21039;-79
2022/11/11 09:36:16;;;;;;;6.62;3.00;;;;;;;10.72;82.03;102211.41;1671274;82;21056;-79
2022/11/11 09:39:01;;;;;;;10.63;3.25;;;;;;;10.75;82.06;102206.27;1687519;83;21032;-79
2022/11/11 09:42:16;;;;;;;11.55;3.83;;;;;;;10.78;82.04;102204.13;1683717;83;21971;-79
2022/11/11 09:45:24;;;;;;;8.08;3.77;;;;;;;10.82;81.98;102205.90;1688200;83;21074;-79
2022/11/11 09:48:34;;;;;;;6.47;3.02;;;;;;;10.85;81.88;102202.91;1683213;83;21634;-79
2022/11/11 09:51:53;;;;;;;8.80;3.35;;;;;;;10.90;81.95;102197.34;1688845;83;21718;-83
2022/11/11 09:54:45;;;;;;;10.10;3.05;;;;;;;10.92;81.97;102194.73;1697508;82;21134;-83
2022/11/11 09:57:45;;;;;;;6.85;3.00;;;;;;;10.94;81.91;102193.02;1704678;82;20929;-84
2022/11/11 10:00:39;;;;;;;9.05;2.70;;;;;;;10.98;81.85;102193.48;1710340;82;21114;-83
2022/11/11 10:03:25;;;;;;;8.85;2.85;;;;;;;11.04;81.88;102190.08;1697139;82;21086;-82
2022/11/11 10:06:19;;;;;;;;;;;;;;;11.08;81.83;102183.64;1694828;82;22403;-81
2022/11/11 10:09:27;;;;;;;9.13;2.95;;;;;;;11.13;81.48;102182.38;1691144;82;20169;-78
2022/11/11 10:12:14;;;;;;;6.30;2.90;;;;;;;11.14;81.76;102174.62;1692514;82;21625;-78
2022/11/11 10:15:00;;;;;;;5.75;2.80;;;;;;;11.19;81.71;102165.17;1693029;82;22062;-78
2022/11/11 10:18:20;;;;;;;5.95;2.75;;;;;;;11.23;81.71;102175.12;1658254;84;21577;-78
2022/11/11 10:21:15;;;;;;;4.17;2.75;;;;;;;11.30;81.76;102169.55;1700703;80;21054;-78
2022/11/11 10:24:05;;;;;;;7.62;3.22;;;;;;;11.39;81.78;102165.29;1690734;82;21058;-80
2022/11/11 10:26:50;;;;;;;5.97;2.60;;;;;;;11.43;81.59;102172.64;1690748;82;21054;-80
2022/11/11 10:29:43;;;;;;;5.78;3.40;;;;;;;11.45;81.58;102170.47;1696090;82;21530;-80
2022/11/11 10:32:33;;;;;;;9.63;2.70;;;;;;;11.49;81.54;102176.53;1665943;84;21132;-81
2022/11/11 10:35:27;;;;;;;7.35;2.67;;;;;;;11.51;81.56;102165.75;1700089;82;21102;-83
2022/11/11 10:38:33;;;;;;;7.15;3.12;;;;;;;11.55;81.57;102167.07;1661247;84;21494;-81
2022/11/11 10:41:32;;;;;;;6.33;2.92;;;;;;;11.60;81.49;102165.80;1700272;82;20998;-78
2022/11/11 10:44:30;;;;;;;7.20;2.98;;;;;;;11.65;81.40;102169.70;1663823;84;21101;-78
2022/11/11 10:47:45;;;;;;;8.18;3.70;;;;;;;11.66;81.39;102164.53;1696384;82;21744;-78
2022/11/11 10:50:34;;;;;;;5.85;3.15;;;;;;;11.68;81.34;102170.59;1692936;82;21011;-80
2022/11/11 10:53:40;;;;;;;10.68;2.65;;;;;;;11.70;81.34;102161.09;1687573;83;21103;-85
2022/11/11 10:57:07;;;;;;;6.08;2.47;;;;;;;11.71;81.25;102156.34;1676192;83;21130;-81
2022/11/11 11:00:07;;;;;;;7.58;2.58;;;;;;;11.73;81.24;102161.11;1662212;83;21096;-81
2022/11/11 11:03:02;;;;;;;7.10;2.87;;;;;;;11.77;81.28;102162.02;1633151;85;21138;-82
2022/11/11 11:06:07;;;;;;;7.37;2.95;;;;;;;11.79;81.24;102159.00;1657710;82;21604;-81
2022/11/11 11:09:00;;;;;;;5.33;3.25;;;;;;;11.78;81.13;102152.95;1661230;84;21062;-83
2022/11/11 11:12:06;;;;;;;6.62;2.72;;;;;;;11.79;81.12;102148.64;1643009;85;21164;-81
2022/11/11 11:14:55;;;;;;;5.75;2.75;;;;;;;11.80;81.08;102154.25;1654020;85;21490;-81
2022/11/11 11:18:02;;;;;;;8.30;2.60;;;;;;;11.80;80.97;102155.13;1631882;85;21607;-78
2022/11/11 11:21:03;;;;;;;5.42;2.58;;;;;;;11.83;81.04;102156.42;1648596;85;21639;-78
2022/11/11 11:23:48;;;;;;;10.15;2.85;;;;;;;11.84;80.93;102154.27;1640460;85;21787;-77
2022/11/11 11:26:46;;;;;;;8.08;3.30;;;;;;;11.85;80.93;102144.77;1657495;85;21397;-77
2022/11/11 11:29:38;;;;;;;6.87;2.62;;;;;;;11.89;80.90;102149.97;1658247;84;21056;-77
2022/11/11 11:32:31;;;;;;;6.60;3.00;;;;;;;11.91;80.80;102156.45;1644329;85;21146;-77
2022/11/11 11:35:39;;;;;;;6.12;3.00;;;;;;;11.91;80.81;102157.75;1656070;84;21112;-77
2022/11/11 11:38:49;;;;;;;12.23;2.77;;;;;;;11.94;80.85;102166.84;1631241;86;21684;-77
2022/11/11 11:41:49;;;;;;;7.55;2.83;;;;;;;11.99;80.79;102174.16;1594416;86;41814;-77
2022/11/11 11:44:34;;;;;;;5.83;2.42;;;;;;;11.98;80.67;102188.42;1674717;83;21108;-77
2022/11/11 11:47:40;;;;;;;5.20;2.45;;;;;;;11.96;80.67;102179.80;1684323;83;21080;-78
2022/11/11 11:50:49;;;;;;;7.58;2.75;;;;;;;11.99;80.68;102170.27;1677196;83;21512;-78
2022/11/11 11:54:02;;;;;;;5.37;2.50;;;;;;;12.03;80.65;102168.13;1677076;83;21072;-77
2022/11/11 11:56:51;;;;;;;4.97;2.17;;;;;;;12.06;80.61;102178.94;1679084;84;21116;-77
2022/11/11 11:59:57;;;;;;;8.88;3.02;;;;;;;12.05;80.53;102174.61;1685405;84;21088;-77
2022/11/11 12:03:05;;;;;;;8.35;3.02;;;;;;;12.05;80.50;102170.73;1672685;84;21062;-77
2022/11/11 12:06:12;;;;;;;5.00;2.20;;;;;;;12.07;80.44;102176.78;1677039;84;20993;-77
2022/11/11 12:09:24;;;;;;;5.85;2.55;;;;;;;12.07;80.43;102177.65;1679899;84;21143;-77
2022/11/11 12:12:49;;;;;;;3.58;2.50;;;;;;;12.10;80.43;102174.20;1671724;83;21495;-77
2022/11/11 12:15:57;;;;;;;13.15;2.60;;;;;;;12.12;80.36;102178.95;1674875;83;27146;-77
2022/11/11 12:19:15;;;;;;;5.85;2.55;;;;;;;12.13;80.36;102178.96;1668754;84;21092;-76
2022/11/11 12:22:54;;;;;;;9.65;3.62;;;;;;;12.14;80.21;102174.21;1620668;85;21174;-77
2022/11/11 12:26:16;;;;;;;8.58;3.30;;;;;;;12.15;80.28;102168.59;1677133;83;21111;-77
2022/11/11 12:29:28;;;;;;;7.08;3.40;;;;;;;12.13;80.17;102168.59;1670788;84;20980;-77
2022/11/11 12:32:35;;;;;;;4.12;2.50;;;;;;;12.10;80.13;102162.09;1631062;85;21084;-76
2022/11/11 12:35:28;;;;;;;11.00;2.90;;;;;;;12.08;80.08;102169.44;1678215;84;20988;-76
2022/11/11 12:38:37;;;;;;;6.03;2.60;;;;;;;12.07;80.06;102176.35;1671168;84;21143;-76
2022/11/11 12:41:45;;;;;;;5.12;2.40;;;;;;;12.05;79.96;102180.66;1600498;85;21568;-76
2022/11/11 12:44:38;;;;;;;10.55;2.83;;;;;;;12.04;79.98;102185.42;1579972;88;21416;-76
2022/11/11 12:47:34;;;;;;;6.87;2.62;;;;;;;12.03;79.93;102186.27;1666553;83;21133;-76
2022/11/11 12:50:45;;;;;;;8.15;2.42;;;;;;;12.01;79.89;102184.54;1672388;83;21115;-76
2022/11/11 12:54:07;;;;;;;6.58;2.55;;;;;;;11.97;79.83;102187.55;1673759;84;21133;-76
2022/11/11 12:57:03;;;;;;;7.55;2.75;;;;;;;11.94;79.79;102187.58;1670968;84;21120;-76
2022/11/11 12:59:59;;;;;;;6.65;2.70;;;;;;;11.91;79.77;102196.20;1668885;84;21087;-77
2022/11/11 13:03:14;;;;;;;;;;;;;;;11.90;79.65;102201.38;1679842;84;21109;-76
2022/11/11 13:06:27;;;;;;;8.25;2.60;;;;;;;11.86;79.44;102199.64;1671231;84;20195;-76
2022/11/11 13:09:38;;;;;;;7.78;2.40;;;;;;;11.84;79.68;102204.81;1677101;84;21084;-76
2022/11/11 13:12:46;;;;;;;12.33;2.50;;;;;;;11.84;79.68;102210.00;1680523;84;21100;-76
2022/11/11 13:15:31;;;;;;;5.30;2.60;;;;;;;11.84;79.60;102207.84;1659200;84;21092;-76
2022/11/11 13:18:33;;;;;;;5.25;2.35;;;;;;;11.81;79.59;102205.23;1667939;84;21049;-76
2022/11/11 13:21:35;;;;;;;7.70;2.52;;;;;;;11.80;79.59;102208.25;1661525;84;21619;-76
2022/11/11 13:24:22;;;;;;;10.53;3.10;;;;;;;11.79;79.42;102197.45;1630939;85;21126;-76
2022/11/11 13:27:29;;;;;;;7.15;2.62;;;;;;;11.78;79.48;102204.78;1664718;84;21335;-77
2022/11/11 13:30:29;;;;;;;6.40;2.58;;;;;;;11.77;79.49;102204.34;1676610;84;21588;-77
2022/11/11 13:33:18;;;;;;;5.85;2.58;;;;;;;11.78;79.49;102203.92;1673686;84;22220;-77
2022/11/11 13:36:06;;;;;;;4.67;2.27;;;;;;;11.76;79.42;102193.52;1676664;83;21060;-77
2022/11/11 13:39:01;;;;;;;5.72;2.50;;;;;;;11.77;79.41;102193.98;1678995;84;21464;-77
2022/11/11 13:41:50;;;;;;;4.62;2.45;;;;;;;11.78;79.38;102197.44;1679639;84;21107;-77
2022/11/11 13:44:40;;;;;;;6.17;2.12;;;;;;;11.79;79.40;102203.06;1630117;85;21058;-77
2022/11/11 13:47:38;;;;;;;12.80;3.95;;;;;;;11.79;79.40;102193.56;1682238;81;21126;-77
2022/11/11 13:50:34;;;;;;;5.15;2.55;;;;;;;11.81;79.37;102194.43;1677274;84;21092;-77
2022/11/11 13:53:31;;;;;;;5.60;2.52;;;;;;;11.79;79.33;102192.27;1671974;84;21648;-77
2022/11/11 13:56:42;;;;;;;7.65;2.70;;;;;;;11.79;79.30;102192.27;1665646;84;21682;-77
2022/11/11 13:59:32;;;;;;;5.03;2.45;;;;;;;11.79;79.31;102196.58;1670915;84;21044;-77
2022/11/11 14:02:30;;;;;;;4.60;2.45;;;;;;;11.76;79.23;102193.94;1669139;84;21033;-77
2022/11/11 14:05:21;;;;;;;7.80;2.83;;;;;;;11.74;79.23;102203.01;1629946;85;21540;-77
2022/11/11 14:08:07;;;;;;;9.28;2.62;;;;;;;11.72;79.21;102202.13;1672525;84;21100;-77
2022/11/11 14:10:57;;;;;;;8.95;3.22;;;;;;;11.72;79.23;102193.06;1665576;84;21552;-77
2022/11/11 14:13:42;;;;;;;7.55;2.90;;;;;;;11.71;79.21;102204.28;1674484;84;20965;-77
2022/11/11 14:16:38;;;;;;;6.15;2.67;;;;;;;11.69;79.14;102211.61;1673371;84;21418;-77
2022/11/11 14:19:27;;;;;;;7.47;2.72;;;;;;;11.65;79.15;102204.25;1674785;84;27712;-77
2022/11/11 14:22:33;;;;;;;7.20;2.45;;;;;;;11.63;79.13;102204.67;1676402;84;20983;-77
2022/11/11 14:25:27;;;;;;;8.13;2.50;;;;;;;11.60;79.07;102200.77;1677655;84;22043;-77
2022/11/11 14:28:31;;;;;;;5.50;2.27;;;;;;;11.52;79.01;102201.16;1624802;85;21039;-78
2022/11/11 14:31:21;;;;;;;4.70;2.70;;;;;;;11.49;79.05;102211.50;1672227;84;20918;-77
2022/11/11 14:34:49;;;;;;;6.05;2.47;;;;;;;11.44;79.01;102211.48;1630573;85;20979;-77
2022/11/11 14:37:50;;;;;;;4.97;2.20;;;;;;;11.38;79.01;102212.77;1657730;84;20952;-76